Terminal Aerodrome Forecast
Issued by NWS

Home | Current Version | Previous Version | Text Only | Print | Product List | Glossary On
Versions: 1 2 3 4 5 6 7 8 9 10 11 12 13 14 15
000
FTUS46 KLOX 191135
TAFBUR
TAF
KBUR 191135Z 1912/2012 VRB05KT P6SM OVC008
     FM191900 17008KT P6SM BKN035
     FM200500 VRB03KT P6SM VCSH BKN050
     FM200900 VRB03KT P6SM -RA OVC025=

USA.gov is the U.S. government's official web portal to all federal, state and local government web resources and services.